Time;durP1;ratioP1;P1;durP2;ratioP2;P2;SDS_P1;SDS_P2;PMS_P1;PMS_P2;Temp;Humidity;BMP_temperature;BMP_pressure;BME280_temperature;BME280_humidity;BME280_pressure;Samples;Min_cycle;Max_cycle;Signal;HPM_P1;HPM_P2
2021/11/09 00:00:17;;;;;;;;;68.25;54.50;;;;;;;;5061561;28;45398;-70
2021/11/09 00:02:45;;;;;;;;;70.00;52.50;;;;;;;;5060087;28;45390;-70
2021/11/09 00:05:13;;;;;;;;;65.00;49.75;;;;;;;;5057460;28;45438;-70
2021/11/09 00:07:48;;;;;;;;;68.75;52.00;;;;;;;;5060871;28;46612;-70
2021/11/09 00:10:14;;;;;;;;;67.75;54.50;;;;;;;;5067598;28;45983;-70
2021/11/09 00:12:41;;;;;;;;;58.75;48.25;;;;;;;;5066842;27;45438;-69
2021/11/09 00:15:08;;;;;;;;;65.25;51.00;;;;;;;;5062036;28;45367;-70
2021/11/09 00:17:34;;;;;;;;;62.25;48.50;;;;;;;;5058657;28;46484;-70
2021/11/09 00:20:00;;;;;;;;;70.50;52.00;;;;;;;;5057083;28;46154;-70
2021/11/09 00:22:25;;;;;;;;;68.00;52.00;;;;;;;;5058589;28;45439;-70
2021/11/09 00:24:52;;;;;;;;;65.50;53.50;;;;;;;;5061287;28;45403;-69
2021/11/09 00:27:17;;;;;;;;;62.25;53.00;;;;;;;;5068093;28;46271;-69
2021/11/09 00:29:44;;;;;;;;;68.50;53.50;;;;;;;;5064422;28;45510;-70
2021/11/09 00:32:09;;;;;;;;;65.75;53.00;;;;;;;;5072136;28;45362;-70
2021/11/09 00:34:35;;;;;;;;;67.25;51.25;;;;;;;;5064631;28;45406;-69
2021/11/09 00:37:00;;;;;;;;;69.25;53.50;;;;;;;;5074310;28;46304;-70
2021/11/09 00:39:26;;;;;;;;;68.75;54.00;;;;;;;;5072577;28;45521;-70
2021/11/09 00:41:51;;;;;;;;;67.00;51.00;;;;;;;;5069391;28;45489;-70
2021/11/09 00:44:16;;;;;;;;;69.67;53.67;;;;;;;;5073392;27;45519;-69
2021/11/09 00:46:42;;;;;;;;;69.33;51.67;;;;;;;;5066790;28;46153;-69
2021/11/09 00:49:07;;;;;;;;;69.50;53.50;;;;;;;;5065856;27;45391;-70
2021/11/09 00:51:32;;;;;;;;;66.33;52.33;;;;;;;;5064235;28;45349;-70
2021/11/09 00:53:57;;;;;;;;;66.33;54.00;;;;;;;;5065468;28;45476;-70
2021/11/09 00:56:22;;;;;;;;;62.67;49.00;;;;;;;;5074874;28;45332;-70
2021/11/09 00:58:48;;;;;;;;;68.33;54.33;;;;;;;;5060214;28;45594;-69
2021/11/09 01:01:13;;;;;;;;;63.33;52.33;;;;;;;;5063957;28;45514;-70
2021/11/09 01:03:38;;;;;;;;;72.75;54.00;;;;;;;;5064023;27;45516;-70
2021/11/09 01:06:04;;;;;;;;;68.00;53.25;;;;;;;;5073847;27;46215;-70
2021/11/09 01:08:30;;;;;;;;;73.33;55.33;;;;;;;;5066113;28;45517;-70
2021/11/09 01:10:55;;;;;;;;;70.75;54.25;;;;;;;;5062646;28;45548;-69
2021/11/09 01:13:22;;;;;;;;;71.75;55.50;;;;;;;;5070436;27;45816;-70
2021/11/09 01:15:49;;;;;;;;;66.25;54.00;;;;;;;;5069474;27;45336;-69
2021/11/09 01:18:16;;;;;;;;;66.75;52.75;;;;;;;;5072166;28;45517;-69
2021/11/09 01:20:42;;;;;;;;;64.50;52.00;;;;;;;;5062488;28;45372;-70
2021/11/09 01:23:07;;;;;;;;;67.50;54.00;;;;;;;;5071983;28;45435;-70
2021/11/09 01:25:32;;;;;;;;;63.25;51.25;;;;;;;;5063323;28;46037;-70
2021/11/09 01:27:58;;;;;;;;;65.75;52.00;;;;;;;;5061096;28;45523;-70
2021/11/09 01:30:24;;;;;;;;;63.25;49.25;;;;;;;;5060281;28;45473;-69
2021/11/09 01:32:50;;;;;;;;;68.25;51.00;;;;;;;;5063763;28;45590;-69
2021/11/09 01:35:16;;;;;;;;;65.25;52.75;;;;;;;;5056823;28;46228;-70
2021/11/09 01:37:42;;;;;;;;;71.00;52.25;;;;;;;;5059867;28;45372;-70
2021/11/09 01:40:08;;;;;;;;;67.50;51.75;;;;;;;;5063725;28;45537;-70
2021/11/09 01:42:33;;;;;;;;;69.00;52.50;;;;;;;;5063795;28;45430;-70
2021/11/09 01:44:59;;;;;;;;;63.75;50.25;;;;;;;;5062608;28;46138;-69
2021/11/09 01:47:25;;;;;;;;;66.50;52.00;;;;;;;;5061024;28;45823;-70
2021/11/09 01:49:50;;;;;;;;;62.33;51.00;;;;;;;;5059273;28;45513;-70
2021/11/09 01:52:15;;;;;;;;;68.00;53.33;;;;;;;;5072261;28;45521;-69
2021/11/09 01:54:40;;;;;;;;;64.00;50.75;;;;;;;;5069799;28;46060;-70
2021/11/09 01:57:06;;;;;;;;;70.00;56.33;;;;;;;;5069503;28;45260;-69
2021/11/09 01:59:32;;;;;;;;;64.00;53.00;;;;;;;;5070856;28;45451;-70
2021/11/09 02:01:57;;;;;;;;;63.25;50.00;;;;;;;;5061150;28;45474;-70
2021/11/09 02:04:22;;;;;;;;;63.67;52.00;;;;;;;;5062305;28;46279;-70
2021/11/09 02:06:48;;;;;;;;;69.75;52.50;;;;;;;;5059608;28;45450;-70
2021/11/09 02:09:14;;;;;;;;;67.00;51.67;;;;;;;;5065759;28;45388;-70
2021/11/09 02:11:40;;;;;;;;;64.00;50.00;;;;;;;;5061726;28;45515;-69
2021/11/09 02:14:06;;;;;;;;;65.75;51.00;;;;;;;;5057779;28;46074;-70
2021/11/09 02:16:31;;;;;;;;;61.50;50.25;;;;;;;;5061409;28;45418;-70
2021/11/09 02:18:57;;;;;;;;;68.75;54.00;;;;;;;;5066060;28;45427;-70
2021/11/09 02:21:22;;;;;;;;;64.50;51.25;;;;;;;;5067176;28;45585;-69
2021/11/09 02:23:48;;;;;;;;;63.75;51.25;;;;;;;;5062293;28;46036;-69
2021/11/09 02:26:15;;;;;;;;;63.00;51.50;;;;;;;;5060005;28;45301;-69
2021/11/09 02:28:41;;;;;;;;;67.25;49.75;;;;;;;;5059749;28;45552;-70
2021/11/09 02:31:07;;;;;;;;;64.50;50.50;;;;;;;;5064315;28;45422;-69
2021/11/09 02:33:33;;;;;;;;;61.75;50.00;;;;;;;;5063557;28;46360;-70
2021/11/09 02:35:58;;;;;;;;;57.75;48.25;;;;;;;;5073062;28;45842;-69
2021/11/09 02:38:24;;;;;;;;;67.00;52.00;;;;;;;;5058935;28;45396;-69
2021/11/09 02:40:49;;;;;;;;;69.25;54.00;;;;;;;;5059595;28;45506;-70
2021/11/09 02:43:15;;;;;;;;;74.00;55.00;;;;;;;;5059743;28;46057;-70
2021/11/09 02:48:30;;;;;;;;;63.00;48.25;;;;;;;;5064755;28;45532;-70
2021/11/09 02:53:46;;;;;;;;;65.75;49.75;;;;;;;;5024680;28;45514;-70
2021/11/09 02:59:20;;;;;;;;;64.75;51.00;;;;;;;;5026794;28;45617;-70
2021/11/09 03:01:53;;;;;;;;;61.50;48.50;;;;;;;;5017398;28;45472;-70
2021/11/09 03:07:26;;;;;;;;;60.50;46.50;;;;;;;;5019296;28;45768;-70
2021/11/09 03:09:59;;;;;;;;;66.25;50.25;;;;;;;;5018797;28;45463;-70
2021/11/09 03:12:31;;;;;;;;;62.75;50.25;;;;;;;;5021402;28;45458;-70
2021/11/09 03:14:56;;;;;;;;;63.50;49.50;;;;;;;;5025508;28;45732;-70
2021/11/09 03:17:23;;;;;;;;;62.25;50.00;;;;;;;;5016609;28;45628;-70
2021/11/09 03:19:55;;;;;;;;;63.00;51.00;;;;;;;;5019346;28;45421;-70
2021/11/09 03:46:55;;;;;;;;;65.50;49.25;;;;;;;;5071443;27;46424;-70
2021/11/09 03:49:23;;;;;;;;;48.75;41.25;;;;;;;;5059176;28;45748;-70
2021/11/09 03:51:49;;;;;;;;;49.75;43.25;;;;;;;;5068618;28;45561;-70
2021/11/09 03:54:16;;;;;;;;;58.75;46.50;;;;;;;;5055694;28;45638;-69
2021/11/09 03:59:21;;;;;;;;;51.25;43.50;;;;;;;;5060436;28;46260;-70
2021/11/09 04:04:36;;;;;;;;;59.25;45.75;;;;;;;;5071394;28;45522;-69
2021/11/09 04:07:06;;;;;;;;;61.00;45.50;;;;;;;;5066420;28;45557;-70
2021/11/09 04:09:42;;;;;;;;;52.75;45.25;;;;;;;;5062326;28;45532;-69
2021/11/09 04:12:28;;;;;;;;;45.00;40.50;;;;;;;;5075301;28;45348;-70
2021/11/09 04:18:31;;;;;;;;;49.50;36.00;;;;;;;;5061683;28;45612;-69
2021/11/09 04:31:27;;;;;;;;;58.75;43.50;;;;;;;;5061882;28;45863;-70
2021/11/09 05:10:27;;;;;;;;;55.00;43.25;;;;;;;;5011163;28;46777;-70
2021/11/09 05:12:52;;;;;;;;;54.25;40.75;;;;;;;;5012797;28;45562;-70
2021/11/09 05:15:18;;;;;;;;;46.00;38.67;;;;;;;;5010213;28;45492;-70
2021/11/09 05:17:43;;;;;;;;;43.33;38.00;;;;;;;;5007018;28;45418;-70
2021/11/09 05:20:08;;;;;;;;;45.00;39.67;;;;;;;;5009604;28;45548;-70
2021/11/09 05:22:34;;;;;;;;;52.75;41.50;;;;;;;;5012395;28;45502;-70
2021/11/09 05:24:59;;;;;;;;;55.33;43.33;;;;;;;;5012580;28;45458;-70
2021/11/09 05:27:27;;;;;;;;;45.25;37.25;;;;;;;;5011288;28;45583;-69
2021/11/09 05:29:53;;;;;;;;;47.25;40.00;;;;;;;;5008478;28;46194;-69
2021/11/09 05:32:18;;;;;;;;;57.25;43.25;;;;;;;;5011266;28;45514;-70
2021/11/09 05:34:43;;;;;;;;;43.25;39.25;;;;;;;;5008430;28;45331;-70
2021/11/09 05:37:11;;;;;;;;;42.00;39.67;;;;;;;;5002965;28;45486;-69
2021/11/09 05:39:45;;;;;;;;;49.00;41.25;;;;;;;;5010445;28;46043;-70
2021/11/09 05:42:10;;;;;;;;;55.25;41.25;;;;;;;;5051857;28;45692;-69
2021/11/09 05:44:35;;;;;;;;;43.75;37.00;;;;;;;;5071788;28;45660;-70
2021/11/09 05:47:01;;;;;;;;;43.00;38.75;;;;;;;;5071403;28;45447;-70
2021/11/09 05:49:27;;;;;;;;;48.75;39.00;;;;;;;;5066348;28;45727;-70
2021/11/09 05:51:52;;;;;;;;;48.50;41.00;;;;;;;;5063908;28;45501;-70
2021/11/09 05:54:17;;;;;;;;;43.33;34.67;;;;;;;;5065044;28;45527;-70
2021/11/09 05:56:42;;;;;;;;;40.67;33.67;;;;;;;;5062051;28;45544;-70
2021/11/09 05:59:08;;;;;;;;;51.00;40.33;;;;;;;;5066419;27;45463;-70
2021/11/09 06:01:33;;;;;;;;;48.33;38.67;;;;;;;;5070462;28;45398;-70
2021/11/09 06:03:58;;;;;;;;;54.67;43.00;;;;;;;;5070122;28;45430;-70
2021/11/09 06:06:23;;;;;;;;;47.00;40.00;;;;;;;;5068197;27;45446;-70
2021/11/09 06:08:49;;;;;;;;;50.33;40.00;;;;;;;;5065701;28;46576;-70
2021/11/09 06:11:15;;;;;;;;;44.75;39.50;;;;;;;;5072994;28;45830;-70
2021/11/09 06:13:40;;;;;;;;;54.25;41.00;;;;;;;;5071469;27;45519;-70
2021/11/09 06:16:05;;;;;;;;;45.00;39.33;;;;;;;;5052272;28;45404;-70
2021/11/09 06:18:30;;;;;;;;;52.00;41.67;;;;;;;;5066105;28;45946;-70
2021/11/09 06:20:56;;;;;;;;;42.33;35.33;;;;;;;;5067659;28;45590;-70
2021/11/09 06:23:21;;;;;;;;;47.33;39.67;;;;;;;;5061382;28;45905;-70
2021/11/09 06:25:46;;;;;;;;;48.33;36.67;;;;;;;;5064710;28;45495;-70
2021/11/09 06:28:12;;;;;;;;;46.33;38.67;;;;;;;;5066354;28;46174;-70
2021/11/09 06:30:38;;;;;;;;;47.00;38.50;;;;;;;;5067280;28;45880;-70
2021/11/09 06:33:03;;;;;;;;;21.00;17.00;;;;;;;;5069599;28;45413;-69
2021/11/09 06:35:28;;;;;;;;;48.25;35.75;;;;;;;;5066064;28;45422;-70
2021/11/09 06:37:54;;;;;;;;;38.50;35.75;;;;;;;;5071710;28;46821;-70
2021/11/09 06:40:19;;;;;;;;;32.00;24.00;;;;;;;;5059434;28;45394;-70
2021/11/09 06:42:45;;;;;;;;;34.00;28.50;;;;;;;;5062737;28;45478;-70
2021/11/09 06:45:10;;;;;;;;;37.25;28.75;;;;;;;;5062997;28;45383;-70
2021/11/09 06:47:36;;;;;;;;;33.00;29.00;;;;;;;;5064633;28;46224;-70
2021/11/09 06:50:02;;;;;;;;;35.50;30.50;;;;;;;;5056998;28;45616;-70
2021/11/09 06:52:28;;;;;;;;;29.00;24.00;;;;;;;;5059883;28;45292;-70
2021/11/09 06:54:53;;;;;;;;;28.75;24.00;;;;;;;;5048541;28;45378;-70
2021/11/09 06:57:18;;;;;;;;;29.33;24.33;;;;;;;;5070741;28;45150;-70
2021/11/09 06:59:47;;;;;;;;;25.00;22.33;;;;;;;;5067672;28;45778;-70
2021/11/09 07:02:12;;;;;;;;;30.50;25.00;;;;;;;;5057913;28;45588;-70
2021/11/09 07:04:37;;;;;;;;;20.75;17.25;;;;;;;;5059961;28;45475;-70
2021/11/09 07:07:03;;;;;;;;;26.33;22.33;;;;;;;;5067282;28;47000;-70
2021/11/09 07:09:28;;;;;;;;;30.75;20.50;;;;;;;;5067562;28;45338;-71
2021/11/09 07:11:54;;;;;;;;;20.67;18.33;;;;;;;;5066433;28;45454;-69
2021/11/09 07:14:20;;;;;;;;;28.75;25.50;;;;;;;;5062121;28;45315;-71
2021/11/09 07:16:46;;;;;;;;;25.50;23.50;;;;;;;;5054420;28;46303;-72
2021/11/09 07:19:13;;;;;;;;;27.00;23.25;;;;;;;;5062830;28;45553;-73
2021/11/09 07:21:38;;;;;;;;;23.25;22.50;;;;;;;;5066978;28;45525;-70
2021/11/09 07:24:03;;;;;;;;;30.67;21.33;;;;;;;;5062369;28;45351;-71
2021/11/09 07:26:29;;;;;;;;;34.75;25.50;;;;;;;;5059232;28;45671;-71
2021/11/09 07:28:55;;;;;;;;;27.75;21.75;;;;;;;;5058210;28;45435;-71
2021/11/09 07:31:20;;;;;;;;;34.00;23.50;;;;;;;;5061765;28;45327;-71
2021/11/09 07:33:46;;;;;;;;;34.25;19.25;;;;;;;;5061698;28;45672;-71
2021/11/09 07:36:12;;;;;;;;;29.25;26.00;;;;;;;;5062291;28;47047;-71
2021/11/09 07:38:37;;;;;;;;;36.00;25.25;;;;;;;;5059534;28;45596;-71
2021/11/09 07:41:03;;;;;;;;;29.50;22.00;;;;;;;;5057641;28;45409;-71
2021/11/09 07:43:28;;;;;;;;;24.75;22.25;;;;;;;;5060922;28;45292;-71
2021/11/09 07:45:53;;;;;;;;;31.33;25.67;;;;;;;;5065749;28;45522;-71
2021/11/09 07:48:19;;;;;;;;;40.75;22.75;;;;;;;;5069821;28;45399;-71
2021/11/09 07:50:44;;;;;;;;;27.67;22.67;;;;;;;;5057049;28;45538;-71
2021/11/09 07:53:14;;;;;;;;;33.00;25.67;;;;;;;;5071541;28;45531;-71
2021/11/09 07:55:45;;;;;;;;;39.75;27.25;;;;;;;;5059255;28;46576;-71
2021/11/09 07:58:14;;;;;;;;;33.75;24.75;;;;;;;;5061762;28;45776;-71
2021/11/09 08:00:41;;;;;;;;;28.75;25.50;;;;;;;;5059533;28;45458;-71
2021/11/09 08:08:17;;;;;;;;;32.00;24.00;;;;;;;;5070566;28;45987;-71
2021/11/09 08:10:42;;;;;;;;;25.00;20.75;;;;;;;;5075139;28;45463;-71
2021/11/09 08:13:08;;;;;;;;;33.00;25.75;;;;;;;;5066753;28;45489;-71
2021/11/09 08:15:33;;;;;;;;;35.75;23.75;;;;;;;;5064843;28;46659;-71
2021/11/09 08:17:59;;;;;;;;;30.75;25.50;;;;;;;;5046453;28;45413;-71
2021/11/09 08:20:24;;;;;;;;;23.67;22.33;;;;;;;;5063832;28;45617;-71
2021/11/09 08:22:49;;;;;;;;;30.67;26.00;;;;;;;;5060680;28;45456;-71
2021/11/09 08:25:14;;;;;;;;;34.50;25.00;;;;;;;;5072775;27;45508;-71
2021/11/09 08:27:40;;;;;;;;;31.67;20.67;;;;;;;;5069905;28;45522;-71
2021/11/09 08:30:05;;;;;;;;;30.25;22.50;;;;;;;;5063819;28;45539;-71
2021/11/09 08:32:31;;;;;;;;;28.25;23.25;;;;;;;;5061995;27;46535;-72
2021/11/09 08:34:56;;;;;;;;;23.00;22.00;;;;;;;;5059934;28;46115;-71
2021/11/09 08:37:22;;;;;;;;;25.67;21.67;;;;;;;;5064487;28;45466;-71
2021/11/09 08:39:47;;;;;;;;;27.00;20.00;;;;;;;;5066350;28;45633;-71
2021/11/09 08:44:56;;;;;;;;;23.00;20.50;;;;;;;;5072558;28;46049;-72
2021/11/09 08:47:25;;;;;;;;;24.50;22.75;;;;;;;;5060434;28;46040;-71
2021/11/09 08:49:51;;;;;;;;;28.25;25.75;;;;;;;;5072332;28;45468;-72
2021/11/09 08:52:17;;;;;;;;;22.75;19.25;;;;;;;;5071525;28;45346;-72
2021/11/09 08:54:58;;;;;;;;;23.00;20.00;;;;;;;;5068865;28;46145;-72
2021/11/09 09:05:48;;;;;;;;;27.00;18.75;;;;;;;;5009272;28;45411;-72
2021/11/09 09:08:13;;;;;;;;;21.33;18.33;;;;;;;;5011992;28;45459;-72
2021/11/09 09:10:39;;;;;;;;;24.67;21.33;;;;;;;;5009663;28;45491;-72
2021/11/09 09:13:04;;;;;;;;;22.00;20.25;;;;;;;;5008188;28;46751;-72
2021/11/09 09:15:30;;;;;;;;;26.67;22.33;;;;;;;;5007247;28;46184;-72
2021/11/09 09:17:56;;;;;;;;;25.50;21.00;;;;;;;;5008511;28;45741;-72
2021/11/09 09:20:25;;;;;;;;;24.00;21.25;;;;;;;;5011573;28;47310;-72
2021/11/09 09:26:10;;;;;;;;;20.00;19.75;;;;;;;;5008665;28;45368;-72
2021/11/09 09:52:00;;;;;;;;;23.75;20.50;;;;;;;;5008243;28;45805;-72
2021/11/09 09:55:22;;;;;;;;;22.50;16.25;;;;;;;;5064972;28;45461;-72
2021/11/09 09:57:48;;;;;;;;;20.50;18.25;;;;;;;;5063064;28;46098;-72
2021/11/09 10:00:14;;;;;;;;;23.75;19.00;;;;;;;;5045030;28;45851;-72
2021/11/09 10:02:50;;;;;;;;;18.75;17.25;;;;;;;;5070357;28;45453;-72
2021/11/09 10:05:15;;;;;;;;;24.75;19.75;;;;;;;;5059047;28;45239;-72
2021/11/09 10:07:50;;;;;;;;;19.00;18.50;;;;;;;;5060280;28;45388;-72
2021/11/09 10:10:18;;;;;;;;;18.75;15.75;;;;;;;;5063134;28;45339;-72
2021/11/09 10:12:45;;;;;;;;;22.25;21.00;;;;;;;;5063346;28;45361;-72
2021/11/09 10:15:11;;;;;;;;;22.75;18.25;;;;;;;;5063435;28;45432;-72
2021/11/09 10:17:38;;;;;;;;;19.50;17.50;;;;;;;;5060661;28;46266;-72
2021/11/09 10:20:17;;;;;;;;;19.00;15.50;;;;;;;;5058331;28;46460;-72
2021/11/09 10:22:44;;;;;;;;;19.50;17.50;;;;;;;;5059328;28;45325;-72
2021/11/09 10:25:11;;;;;;;;;23.00;20.75;;;;;;;;5069075;28;45404;-72
2021/11/09 10:27:37;;;;;;;;;27.75;19.50;;;;;;;;5067253;28;46010;-72
2021/11/09 10:30:12;;;;;;;;;19.00;17.50;;;;;;;;5062949;28;45896;-72
2021/11/09 10:32:38;;;;;;;;;21.50;17.75;;;;;;;;5069425;28;45483;-72
2021/11/09 10:35:04;;;;;;;;;20.25;18.75;;;;;;;;5072281;27;45385;-72
2021/11/09 10:37:33;;;;;;;;;23.25;20.25;;;;;;;;5061777;27;45296;-72
2021/11/09 10:40:00;;;;;;;;;21.25;20.50;;;;;;;;5062982;28;45571;-72
2021/11/09 10:42:27;;;;;;;;;26.50;21.50;;;;;;;;5062302;28;45394;-72
2021/11/09 10:44:54;;;;;;;;;24.25;21.25;;;;;;;;5062595;28;45450;-72
2021/11/09 10:47:25;;;;;;;;;30.25;24.00;;;;;;;;5057884;28;46182;-71
2021/11/09 10:49:53;;;;;;;;;26.00;23.75;;;;;;;;5070368;28;46005;-72
2021/11/09 10:52:24;;;;;;;;;23.50;20.00;;;;;;;;5062966;28;45613;-72
2021/11/09 10:54:56;;;;;;;;;25.50;22.25;;;;;;;;5062606;28;45481;-72
2021/11/09 10:57:28;;;;;;;;;25.25;21.75;;;;;;;;5062219;28;47264;-72
2021/11/09 11:00:14;;;;;;;;;25.00;22.00;;;;;;;;5058334;28;45419;-72
2021/11/09 11:05:23;;;;;;;;;27.00;22.50;;;;;;;;5058119;28;45335;-72
2021/11/09 11:07:55;;;;;;;;;25.67;22.67;;;;;;;;5059196;28;46025;-72
2021/11/09 11:10:28;;;;;;;;;23.75;20.00;;;;;;;;5068991;28;45303;-72
2021/11/09 11:13:13;;;;;;;;;22.75;19.75;;;;;;;;5065490;28;45534;-72
2021/11/09 11:15:38;;;;;;;;;15.25;13.00;;;;;;;;5062735;27;45554;-72
2021/11/09 11:18:04;;;;;;;;;12.00;12.00;;;;;;;;5062228;28;46113;-72
2021/11/09 11:20:29;;;;;;;;;13.00;12.25;;;;;;;;5058639;28;45457;-72
2021/11/09 11:22:55;;;;;;;;;19.00;14.25;;;;;;;;5058230;28;45909;-72
2021/11/09 11:25:20;;;;;;;;;18.00;13.00;;;;;;;;5068792;27;45663;-72
2021/11/09 11:27:45;;;;;;;;;13.50;11.50;;;;;;;;5066523;28;46402;-72
2021/11/09 11:30:11;;;;;;;;;19.75;14.50;;;;;;;;5062070;28;45449;-72
2021/11/09 11:32:36;;;;;;;;;14.33;11.67;;;;;;;;5073013;28;45477;-72
2021/11/09 11:35:01;;;;;;;;;9.33;8.00;;;;;;;;5057438;28;45464;-72
2021/11/09 11:37:26;;;;;;;;;8.25;8.00;;;;;;;;5061289;28;45329;-72
2021/11/09 11:39:55;;;;;;;;;11.67;10.67;;;;;;;;5068506;27;45429;-72
2021/11/09 11:42:21;;;;;;;;;14.00;11.00;;;;;;;;5073661;28;45370;-71
2021/11/09 11:44:57;;;;;;;;;15.33;10.33;;;;;;;;5064412;28;45381;-72
2021/11/09 11:47:22;;;;;;;;;11.75;8.00;;;;;;;;5060956;28;45244;-72
2021/11/09 11:49:49;;;;;;;;;10.75;9.00;;;;;;;;5062555;28;45353;-72
2021/11/09 11:52:16;;;;;;;;;7.25;7.25;;;;;;;;5065730;28;45345;-72
2021/11/09 11:54:47;;;;;;;;;10.50;7.75;;;;;;;;5065186;27;45481;-71
2021/11/09 11:57:26;;;;;;;;;9.50;6.50;;;;;;;;5065337;27;45356;-72
2021/11/09 11:59:51;;;;;;;;;5.25;5.25;;;;;;;;5067919;28;45549;-72
2021/11/09 12:02:31;;;;;;;;;7.00;5.00;;;;;;;;5060661;27;45596;-71
2021/11/09 12:04:56;;;;;;;;;8.50;4.50;;;;;;;;5073624;28;45266;-72
2021/11/09 12:07:41;;;;;;;;;6.67;5.00;;;;;;;;5072861;28;46163;-72
2021/11/09 12:10:09;;;;;;;;;8.00;4.75;;;;;;;;5066190;28;45726;-71
2021/11/09 12:12:35;;;;;;;;;9.50;5.50;;;;;;;;5065649;27;45428;-72
2021/11/09 12:15:07;;;;;;;;;11.75;7.00;;;;;;;;5065330;28;45397;-72
2021/11/09 12:17:40;;;;;;;;;8.00;6.75;;;;;;;;5042223;28;47239;-71
2021/11/09 12:20:07;;;;;;;;;8.75;6.50;;;;;;;;5075110;28;45340;-72
2021/11/09 12:22:49;;;;;;;;;5.75;5.25;;;;;;;;5061155;28;45509;-72
2021/11/09 12:25:37;;;;;;;;;6.00;5.25;;;;;;;;5071712;28;45383;-72
2021/11/09 12:28:07;;;;;;;;;9.25;4.25;;;;;;;;5058297;27;46095;-72
2021/11/09 12:30:38;;;;;;;;;6.50;5.00;;;;;;;;5059041;28;45420;-72
2021/11/09 12:33:22;;;;;;;;;6.00;4.00;;;;;;;;5065006;28;45400;-72
2021/11/09 12:35:47;;;;;;;;;5.75;4.75;;;;;;;;5064064;28;45445;-72
2021/11/09 12:38:29;;;;;;;;;6.33;5.00;;;;;;;;5059815;28;45386;-71
2021/11/09 12:40:57;;;;;;;;;3.75;3.00;;;;;;;;5072909;27;45782;-72
2021/11/09 12:43:29;;;;;;;;;6.25;4.00;;;;;;;;5072339;28;45525;-71
2021/11/09 12:46:11;;;;;;;;;8.75;4.00;;;;;;;;5067787;28;45298;-72
2021/11/09 12:48:38;;;;;;;;;8.50;5.00;;;;;;;;5064593;28;45488;-72
2021/11/09 12:51:08;;;;;;;;;7.00;5.75;;;;;;;;5063788;28;45374;-72
2021/11/09 12:53:41;;;;;;;;;6.75;4.50;;;;;;;;5061846;28;45740;-72
2021/11/09 12:56:08;;;;;;;;;6.50;4.75;;;;;;;;5059827;28;45343;-72
2021/11/09 12:58:37;;;;;;;;;5.25;5.00;;;;;;;;5070421;28;45733;-72
2021/11/09 13:01:05;;;;;;;;;4.25;4.00;;;;;;;;5062775;28;45800;-72
2021/11/09 13:03:43;;;;;;;;;4.25;4.25;;;;;;;;5064569;28;45537;-72
2021/11/09 13:06:21;;;;;;;;;6.25;4.00;;;;;;;;5064506;28;45449;-72
2021/11/09 13:08:57;;;;;;;;;4.75;3.00;;;;;;;;5063270;27;45456;-72
2021/11/09 13:11:36;;;;;;;;;7.00;5.00;;;;;;;;5041991;28;45650;-72
2021/11/09 13:14:03;;;;;;;;;5.25;3.75;;;;;;;;5059582;28;45412;-72
2021/11/09 13:16:28;;;;;;;;;9.25;5.50;;;;;;;;5062880;28;45491;-72
2021/11/09 13:19:00;;;;;;;;;9.67;5.00;;;;;;;;5064406;27;45460;-72
2021/11/09 13:21:26;;;;;;;;;7.50;5.25;;;;;;;;5063499;28;45713;-72
2021/11/09 13:23:52;;;;;;;;;10.50;5.25;;;;;;;;5063926;28;45501;-72
2021/11/09 13:26:18;;;;;;;;;4.75;4.75;;;;;;;;5059885;28;45474;-72
2021/11/09 13:28:43;;;;;;;;;7.75;4.75;;;;;;;;5060720;28;47034;-72
2021/11/09 13:31:10;;;;;;;;;4.00;4.00;;;;;;;;5064146;28;45365;-72
2021/11/09 13:33:39;;;;;;;;;12.25;6.00;;;;;;;;5063910;28;45430;-72
2021/11/09 13:36:04;;;;;;;;;6.00;6.00;;;;;;;;5060067;28;45436;-72
2021/11/09 13:38:38;;;;;;;;;14.00;7.00;;;;;;;;5075847;28;45472;-72
2021/11/09 13:41:06;;;;;;;;;7.00;5.25;;;;;;;;5059011;28;45332;-72
2021/11/09 13:43:37;;;;;;;;;7.00;4.50;;;;;;;;5059627;27;45388;-72
2021/11/09 13:46:09;;;;;;;;;5.25;5.00;;;;;;;;5068459;28;45489;-72
2021/11/09 13:48:36;;;;;;;;;8.75;6.25;;;;;;;;5069643;27;46195;-72
2021/11/09 13:51:04;;;;;;;;;8.75;6.00;;;;;;;;5063014;28;45383;-72
2021/11/09 13:53:31;;;;;;;;;10.75;4.25;;;;;;;;5060470;28;45269;-72
2021/11/09 13:55:57;;;;;;;;;7.50;5.00;;;;;;;;5059241;28;45391;-72
2021/11/09 13:58:23;;;;;;;;;9.00;6.25;;;;;;;;5062728;27;46211;-72
2021/11/09 14:00:51;;;;;;;;;8.00;6.00;;;;;;;;5063071;27;45399;-72
2021/11/09 14:19:32;;;;;;;;;5.75;4.75;;;;;;;;5031554;28;46003;-72
2021/11/09 14:21:58;;;;;;;;;5.75;4.00;;;;;;;;5027355;28;45719;-72
2021/11/09 14:24:24;;;;;;;;;7.00;6.75;;;;;;;;5032581;28;45399;-72
2021/11/09 14:27:04;;;;;;;;;8.00;5.75;;;;;;;;5028117;28;45576;-72
2021/11/09 14:29:33;;;;;;;;;9.50;6.75;;;;;;;;5017361;28;45614;-72
2021/11/09 14:32:00;;;;;;;;;12.50;9.50;;;;;;;;5032391;28;45543;-72
2021/11/09 14:34:27;;;;;;;;;7.00;5.75;;;;;;;;5027491;28;45583;-72
2021/11/09 14:36:54;;;;;;;;;10.50;7.00;;;;;;;;5032048;28;45576;-72
2021/11/09 14:39:22;;;;;;;;;6.25;5.00;;;;;;;;5027201;28;46237;-72
2021/11/09 14:41:58;;;;;;;;;5.75;5.25;;;;;;;;5031739;28;45450;-72
2021/11/09 14:44:24;;;;;;;;;3.00;3.00;;;;;;;;5030762;28;45482;-72
2021/11/09 14:46:50;;;;;;;;;8.75;6.75;;;;;;;;5028481;28;45566;-72
2021/11/09 14:49:23;;;;;;;;;7.00;6.25;;;;;;;;5026755;28;46313;-72
2021/11/09 14:51:51;;;;;;;;;9.25;6.25;;;;;;;;5031799;28;45437;-72
2021/11/09 14:54:18;;;;;;;;;8.00;6.00;;;;;;;;5038875;28;45669;-72
2021/11/09 14:56:43;;;;;;;;;10.75;6.50;;;;;;;;5058580;28;45415;-72
2021/11/09 14:59:10;;;;;;;;;9.50;5.50;;;;;;;;5072550;28;47097;-72
2021/11/09 15:01:41;;;;;;;;;9.50;6.25;;;;;;;;5059812;28;45965;-72
2021/11/09 15:04:19;;;;;;;;;8.75;5.25;;;;;;;;5062786;28;45264;-72
2021/11/09 15:07:14;;;;;;;;;9.00;5.75;;;;;;;;5062302;28;45566;-72
2021/11/09 15:10:26;;;;;;;;;5.00;4.50;;;;;;;;5062143;28;46143;-72
2021/11/09 15:28:47;;;;;;;;;8.00;6.00;;;;;;;;5063859;28;45367;-72
2021/11/09 15:31:27;;;;;;;;;10.00;6.00;;;;;;;;5065213;28;46407;-72
2021/11/09 15:36:42;;;;;;;;;6.75;5.50;;;;;;;;5072322;28;45408;-72
2021/11/09 15:39:08;;;;;;;;;9.50;6.00;;;;;;;;5065750;28;45551;-72
2021/11/09 15:41:33;;;;;;;;;9.00;5.75;;;;;;;;5062744;28;46387;-72
2021/11/09 15:43:58;;;;;;;;;11.33;6.00;;;;;;;;5065286;28;45407;-72
2021/11/09 15:46:23;;;;;;;;;9.67;4.67;;;;;;;;5064502;28;45481;-72
2021/11/09 15:48:49;;;;;;;;;9.00;6.00;;;;;;;;5065629;28;45500;-72
2021/11/09 15:51:19;;;;;;;;;10.25;6.00;;;;;;;;5065167;28;46202;-72
2021/11/09 15:53:45;;;;;;;;;11.25;7.25;;;;;;;;5064511;28;45615;-72
2021/11/09 15:56:10;;;;;;;;;7.33;7.33;;;;;;;;5060846;28;45526;-72
2021/11/09 15:58:35;;;;;;;;;10.33;9.00;;;;;;;;5063387;28;45383;-72
2021/11/09 16:01:02;;;;;;;;;15.33;11.67;;;;;;;;5065173;28;46302;-72
2021/11/09 16:03:27;;;;;;;;;11.75;11.75;;;;;;;;5065309;28;45256;-72
2021/11/09 16:05:53;;;;;;;;;14.25;11.00;;;;;;;;5065291;28;45386;-72
2021/11/09 16:08:19;;;;;;;;;12.00;9.50;;;;;;;;5060332;28;45453;-72
2021/11/09 16:10:45;;;;;;;;;17.50;12.00;;;;;;;;5061734;27;47140;-72
2021/11/09 16:13:10;;;;;;;;;11.75;8.75;;;;;;;;5071207;27;45734;-72
2021/11/09 16:15:35;;;;;;;;;18.67;10.67;;;;;;;;5065177;28;46774;-72
2021/11/09 16:18:00;;;;;;;;;12.33;10.33;;;;;;;;5065272;28;45352;-72
2021/11/09 16:20:27;;;;;;;;;11.67;9.33;;;;;;;;5061674;27;45457;-72
2021/11/09 16:22:53;;;;;;;;;10.25;9.50;;;;;;;;5063791;28;45386;-72
2021/11/09 16:25:19;;;;;;;;;10.00;9.00;;;;;;;;5075159;27;45449;-72
2021/11/09 16:27:44;;;;;;;;;13.50;9.00;;;;;;;;5078740;27;45316;-72
2021/11/09 16:30:15;;;;;;;;;11.50;10.00;;;;;;;;5075615;27;46268;-72
2021/11/09 16:32:42;;;;;;;;;15.75;10.00;;;;;;;;5088086;27;45508;-72
2021/11/09 16:37:52;;;;;;;;;12.25;11.00;;;;;;;;5070676;28;45529;-72
2021/11/09 16:40:21;;;;;;;;;15.75;12.25;;;;;;;;5067714;27;46120;-72
2021/11/09 16:42:52;;;;;;;;;10.75;8.75;;;;;;;;5065668;27;45839;-72
2021/11/09 16:45:22;;;;;;;;;15.75;13.00;;;;;;;;5068055;27;45485;-72
2021/11/09 16:47:48;;;;;;;;;15.00;11.50;;;;;;;;5067780;28;45824;-72
2021/11/09 16:52:59;;;;;;;;;25.75;14.50;;;;;;;;5068376;28;45854;-72
2021/11/09 16:55:39;;;;;;;;;19.50;17.00;;;;;;;;5066384;28;45540;-72
2021/11/09 18:20:24;;;;;;;;;28.50;23.75;;;;;;;;5064669;28;45519;-71
2021/11/09 18:22:53;;;;;;;;;37.50;25.50;;;;;;;;5064402;28;45390;-71
2021/11/09 18:25:19;;;;;;;;;31.75;26.75;;;;;;;;5061383;28;46135;-71
2021/11/09 18:27:45;;;;;;;;;33.00;23.00;;;;;;;;5070269;27;46000;-71
2021/11/09 18:30:12;;;;;;;;;28.75;23.00;;;;;;;;5050826;28;46130;-71
2021/11/09 18:32:38;;;;;;;;;30.50;23.00;;;;;;;;5071509;28;45534;-71
2021/11/09 18:35:04;;;;;;;;;33.00;23.75;;;;;;;;5058173;28;45741;-71
2021/11/09 18:37:29;;;;;;;;;33.25;22.00;;;;;;;;5061404;28;46461;-71
2021/11/09 18:39:55;;;;;;;;;37.00;29.33;;;;;;;;5070758;28;45475;-71
2021/11/09 18:42:25;;;;;;;;;30.00;26.25;;;;;;;;5070856;27;45651;-71
2021/11/09 18:44:51;;;;;;;;;31.50;24.75;;;;;;;;5070546;27;45762;-71
2021/11/09 18:47:16;;;;;;;;;38.50;30.75;;;;;;;;5065041;28;45384;-70